Time,TemperatureF,DewpointF,PressureIn,WindDirection,WindDirectionDegrees,WindSpeedMPH,WindSpeedGustMPH,Humidity,HourlyPrecipIn,Conditions,Clouds,dailyrainin,SoftwareType,DateUTC
2013-07-09 00:10:00,56.5,44.5,30.07,SSE,157,0.0,-999.0,64,-99.99,,,0.00,Acu-Link.com,2013-07-09 06:10:00,
2013-07-09 00:25:00,55.6,44.0,30.08,NNW,337,4.2,-999.0,65,-99.99,,,0.00,Acu-Link.com,2013-07-09 06:25:00,
2013-07-09 00:41:00,53.8,43.9,30.09,South,180,0.0,-999.0,69,-99.99,,,0.00,Acu-Link.com,2013-07-09 06:41:00,
2013-07-09 00:56:00,52.2,43.4,30.09,West,270,0.0,-999.0,72,-99.99,,,0.00,Acu-Link.com,2013-07-09 06:56:00,
2013-07-09 01:11:00,52.0,42.9,30.09,NE,45,1.7,-999.0,71,-99.99,,,0.00,Acu-Link.com,2013-07-09 07:11:00,
2013-07-09 01:26:00,51.4,43.0,30.09,SE,135,0.0,-999.0,73,-99.99,,,0.00,Acu-Link.com,2013-07-09 07:26:00,
2013-07-09 01:42:00,50.2,42.6,30.10,NNE,22,2.2,-999.0,75,-99.99,,,0.00,Acu-Link.com,2013-07-09 07:42:00,
2013-07-09 01:57:00,51.3,42.6,30.10,NNE,22,2.7,-999.0,72,-99.99,,,0.00,Acu-Link.com,2013-07-09 07:57:00,
2013-07-09 02:12:00,50.5,43.6,30.11,North,0,0.0,-999.0,77,-99.99,,,0.00,Acu-Link.com,2013-07-09 08:12:00,
2013-07-09 02:28:00,49.5,44.9,30.10,NE,45,2.7,-999.0,84,-99.99,,,0.00,Acu-Link.com,2013-07-09 08:28:00,
2013-07-09 02:43:00,49.1,43.2,30.10,NW,315,3.7,-999.0,80,-99.99,,,0.00,Acu-Link.com,2013-07-09 08:43:00,
2013-07-09 02:58:00,47.5,43.2,30.10,South,180,0.0,-999.0,85,-99.99,,,0.00,Acu-Link.com,2013-07-09 08:58:00,
2013-07-09 03:13:00,46.6,42.6,30.12,North,0,2.2,-999.0,86,-99.99,,,0.00,Acu-Link.com,2013-07-09 09:13:00,
2013-07-09 03:28:00,45.3,42.3,30.11,North,0,0.0,-999.0,89,-99.99,,,0.00,Acu-Link.com,2013-07-09 09:28:00,
2013-07-09 03:43:00,45.0,41.7,30.11,NE,45,1.7,-999.0,88,-99.99,,,0.00,Acu-Link.com,2013-07-09 09:43:00,
2013-07-09 03:59:00,45.3,39.8,30.12,NE,45,0.0,-999.0,81,-99.99,,,0.00,Acu-Link.com,2013-07-09 09:59:00,
2013-07-09 04:14:00,44.1,41.4,30.13,NW,315,0.0,-999.0,90,-99.99,,,0.00,Acu-Link.com,2013-07-09 10:14:00,
2013-07-09 04:29:00,43.2,41.9,30.13,NNW,337,1.1,-999.0,95,-99.99,,,0.00,Acu-Link.com,2013-07-09 10:29:00,
2013-07-09 04:45:00,43.3,42.0,30.13,West,270,0.0,-999.0,95,-99.99,,,0.00,Acu-Link.com,2013-07-09 10:45:00,
2013-07-09 05:00:00,42.8,42.3,30.14,WNW,292,0.0,-999.0,98,-99.99,,,0.00,Acu-Link.com,2013-07-09 11:00:00,
2013-07-09 05:15:00,42.1,39.7,30.14,WNW,292,0.0,-999.0,91,-99.99,,,0.00,Acu-Link.com,2013-07-09 11:15:00,
2013-07-09 05:30:00,41.7,39.8,30.15,North,0,1.7,-999.0,93,-99.99,,,0.00,Acu-Link.com,2013-07-09 11:30:00,
2013-07-09 05:45:00,41.9,40.0,30.15,WNW,292,0.0,-999.0,93,-99.99,,,0.00,Acu-Link.com,2013-07-09 11:45:00,
2013-07-09 06:01:00,41.7,41.2,30.16,WNW,292,0.0,-999.0,98,-99.99,,,0.00,Acu-Link.com,2013-07-09 12:01:00,
2013-07-09 06:16:00,41.9,40.0,30.16,NNE,22,2.7,-999.0,93,-99.99,,,0.00,Acu-Link.com,2013-07-09 12:16:00,
2013-07-09 06:31:00,45.7,41.1,30.18,NNE,22,1.7,-999.0,84,-99.99,,,0.00,Acu-Link.com,2013-07-09 12:31:00,
2013-07-09 06:47:00,50.0,42.0,30.17,SSE,157,0.0,-999.0,74,-99.99,,,0.00,Acu-Link.com,2013-07-09 12:47:00,
2013-07-09 07:02:00,54.7,42.4,30.19,North,0,2.7,-999.0,63,-99.99,,,0.00,Acu-Link.com,2013-07-09 13:02:00,
2013-07-09 07:17:00,58.6,44.8,30.19,East,90,0.0,-999.0,60,-99.99,,,0.00,Acu-Link.com,2013-07-09 13:17:00,
2013-07-09 07:33:00,62.4,45.5,30.18,ESE,112,0.0,-999.0,54,-99.99,,,0.00,Acu-Link.com,2013-07-09 13:33:00,
2013-07-09 07:48:00,63.9,46.4,30.18,NNE,22,1.7,-999.0,53,-99.99,,,0.00,Acu-Link.com,2013-07-09 13:48:00,
2013-07-09 08:03:00,67.5,46.0,30.19,East,90,1.7,-999.0,46,-99.99,,,0.00,Acu-Link.com,2013-07-09 14:03:00,
2013-07-09 08:19:00,68.9,47.3,30.19,SE,135,1.7,-999.0,46,-99.99,,,0.00,Acu-Link.com,2013-07-09 14:19:00,
2013-07-09 08:34:00,69.3,48.2,30.20,South,180,2.7,-999.0,47,-99.99,,,0.00,Acu-Link.com,2013-07-09 14:34:00,
2013-07-09 08:49:00,72.1,47.1,30.18,SSW,202,0.0,-999.0,41,-99.99,,,0.00,Acu-Link.com,2013-07-09 14:49:00,
2013-07-09 09:05:00,79.5,49.4,30.19,SSE,157,2.7,-999.0,35,-99.99,,,0.00,Acu-Link.com,2013-07-09 15:05:00,
2013-07-09 09:20:00,69.6,47.9,30.18,ESE,112,2.2,-999.0,46,-99.99,,,0.00,Acu-Link.com,2013-07-09 15:20:00,
2013-07-09 09:35:00,70.2,47.3,30.17,North,0,3.7,-999.0,44,-99.99,,,0.00,Acu-Link.com,2013-07-09 15:35:00,
2013-07-09 09:50:00,71.4,48.9,30.16,SSW,202,2.2,-999.0,45,-99.99,,,0.00,Acu-Link.com,2013-07-09 15:50:00,
2013-07-09 10:06:00,72.0,51.8,30.18,NNE,22,0.0,-999.0,49,-99.99,,,0.00,Acu-Link.com,2013-07-09 16:06:00,
2013-07-09 10:21:00,74.8,51.4,30.16,WNW,292,3.2,-999.0,44,-99.99,,,0.00,Acu-Link.com,2013-07-09 16:21:00,
2013-07-09 10:36:00,76.6,49.8,30.15,NNW,337,4.2,-999.0,39,-99.99,,,0.00,Acu-Link.com,2013-07-09 16:36:00,
2013-07-09 10:51:00,75.7,53.4,30.14,SE,135,0.0,-999.0,46,-99.99,,,0.00,Acu-Link.com,2013-07-09 16:51:00,
2013-07-09 11:07:00,78.1,51.1,30.14,SSW,202,2.2,-999.0,39,-99.99,,,0.00,Acu-Link.com,2013-07-09 17:07:00,
2013-07-09 11:22:00,79.5,55.0,30.13,SSW,202,4.7,-999.0,43,-99.99,,,0.00,Acu-Link.com,2013-07-09 17:22:00,
2013-07-09 11:37:00,81.5,52.7,30.14,SW,225,4.2,-999.0,37,-99.99,,,0.00,Acu-Link.com,2013-07-09 17:37:00,
2013-07-09 11:52:00,82.2,51.8,30.12,South,180,4.7,-999.0,35,-99.99,,,0.00,Acu-Link.com,2013-07-09 17:52:00,
2013-07-09 12:08:00,82.2,51.0,30.12,West,270,2.7,-999.0,34,-99.99,,,0.00,Acu-Link.com,2013-07-09 18:08:00,
2013-07-09 12:23:00,83.8,48.1,30.11,WNW,292,2.2,-999.0,29,-99.99,,,0.00,Acu-Link.com,2013-07-09 18:23:00,
2013-07-09 12:38:00,85.6,46.8,30.10,SSE,157,2.2,-999.0,26,-99.99,,,0.00,Acu-Link.com,2013-07-09 18:38:00,
2013-07-09 12:53:00,88.5,48.2,30.11,SSW,202,3.2,-999.0,25,-99.99,,,0.00,Acu-Link.com,2013-07-09 18:53:00,
2013-07-09 13:09:00,88.5,45.9,30.09,NNW,337,3.7,-999.0,23,-99.99,,,0.00,Acu-Link.com,2013-07-09 19:09:00,
2013-07-09 13:24:00,84.2,43.5,30.08,NE,45,4.7,-999.0,24,-99.99,,,0.00,Acu-Link.com,2013-07-09 19:24:00,
2013-07-09 13:39:00,86.5,43.1,30.08,NNE,22,5.3,-999.0,22,-99.99,,,0.00,Acu-Link.com,2013-07-09 19:39:00,
2013-07-09 13:54:00,87.6,41.5,30.07,North,0,5.8,-999.0,20,-99.99,,,0.00,Acu-Link.com,2013-07-09 19:54:00,
2013-07-09 14:09:00,87.1,-2.9,30.06,West,270,3.2,-999.0,3,-99.99,,,0.00,Acu-Link.com,2013-07-09 20:09:00,
2013-07-09 14:24:00,89.2,42.9,30.05,NE,45,9.9,-999.0,20,-99.99,,,0.00,Acu-Link.com,2013-07-09 20:24:00,
2013-07-09 14:39:00,85.5,42.3,30.05,East,90,2.7,-999.0,22,-99.99,,,0.00,Acu-Link.com,2013-07-09 20:39:00,
2013-07-09 14:55:00,89.1,22.9,30.04,NNE,22,4.2,-999.0,9,-99.99,,,0.00,Acu-Link.com,2013-07-09 20:55:00,
2013-07-09 15:10:00,88.0,-24.1,30.03,North,0,5.3,-999.0,1,-99.99,,,0.00,Acu-Link.com,2013-07-09 21:10:00,
2013-07-09 15:25:00,87.4,-2.7,30.03,SE,135,4.7,-999.0,3,-99.99,,,0.00,Acu-Link.com,2013-07-09 21:25:00,
2013-07-09 15:40:00,87.6,-24.3,30.03,ENE,67,5.8,-999.0,1,-99.99,,,0.00,Acu-Link.com,2013-07-09 21:40:00,
2013-07-09 15:56:00,86.9,-24.8,30.03,NNE,22,7.3,-999.0,1,-99.99,,,0.00,Acu-Link.com,2013-07-09 21:56:00,
2013-07-09 16:11:00,88.0,29.0,30.02,NNE,22,4.2,-999.0,12,-99.99,,,0.00,Acu-Link.com,2013-07-09 22:11:00,
2013-07-09 16:26:00,85.3,42.1,30.01,NNW,337,7.3,-999.0,22,-99.99,,,0.00,Acu-Link.com,2013-07-09 22:26:00,
2013-07-09 16:42:00,84.9,40.6,29.99,North,0,5.3,-999.0,21,-99.99,,,0.00,Acu-Link.com,2013-07-09 22:42:00,
2013-07-09 16:57:00,83.7,40.8,29.99,NNW,337,5.3,-999.0,22,-99.99,,,0.00,Acu-Link.com,2013-07-09 22:57:00,
2013-07-09 17:12:00,83.1,41.4,29.98,NNE,22,5.3,-999.0,23,-99.99,,,0.00,Acu-Link.com,2013-07-09 23:12:00,
2013-07-09 17:27:00,81.9,41.5,29.99,NNW,337,2.7,-999.0,24,-99.99,,,0.00,Acu-Link.com,2013-07-09 23:27:00,
2013-07-09 17:43:00,82.6,44.2,30.00,NNW,337,2.7,-999.0,26,-99.99,,,0.00,Acu-Link.com,2013-07-09 23:43:00,
2013-07-09 17:58:00,81.0,47.5,29.98,West,270,1.7,-999.0,31,-99.99,,,0.00,Acu-Link.com,2013-07-09 23:58:00,
2013-07-09 18:13:00,81.5,47.1,29.97,NE,45,3.2,-999.0,30,-99.99,,,0.00,Acu-Link.com,2013-07-10 00:13:00,
2013-07-09 18:28:00,80.6,44.5,29.97,NNE,22,3.2,-999.0,28,-99.99,,,0.00,Acu-Link.com,2013-07-10 00:28:00,
2013-07-09 18:44:00,79.5,45.3,29.97,NNW,337,0.0,-999.0,30,-99.99,,,0.00,Acu-Link.com,2013-07-10 00:44:00,
2013-07-09 18:59:00,78.8,42.0,29.98,NNE,22,5.8,-999.0,27,-99.99,,,0.00,Acu-Link.com,2013-07-10 00:59:00,
2013-07-09 19:14:00,77.9,44.8,29.99,NNE,22,3.2,-999.0,31,-99.99,,,0.00,Acu-Link.com,2013-07-10 01:14:00,
2013-07-09 19:29:00,77.5,44.5,29.97,NNE,22,4.7,-999.0,31,-99.99,,,0.00,Acu-Link.com,2013-07-10 01:29:00,
2013-07-09 19:45:00,77.0,45.7,29.97,NNW,337,3.2,-999.0,33,-99.99,,,0.00,Acu-Link.com,2013-07-10 01:45:00,
2013-07-09 20:00:00,75.6,46.0,29.97,NE,45,1.7,-999.0,35,-99.99,,,0.00,Acu-Link.com,2013-07-10 02:00:00,
2013-07-09 20:15:00,72.9,43.6,29.99,East,90,0.0,-999.0,35,-99.99,,,0.00,Acu-Link.com,2013-07-10 02:15:00,
2013-07-09 20:31:00,71.2,43.6,29.98,NW,315,0.0,-999.0,37,-99.99,,,0.00,Acu-Link.com,2013-07-10 02:31:00,
2013-07-09 20:46:00,68.7,43.4,29.98,SSW,202,0.0,-999.0,40,-99.99,,,0.00,Acu-Link.com,2013-07-10 02:46:00,
2013-07-09 21:01:00,67.5,42.3,29.99,NNE,22,1.7,-999.0,40,-99.99,,,0.00,Acu-Link.com,2013-07-10 03:01:00,
2013-07-09 21:16:00,70.3,42.8,30.00,NNE,22,5.3,-999.0,37,-99.99,,,0.00,Acu-Link.com,2013-07-10 03:16:00,
2013-07-09 21:31:00,70.5,43.7,30.01,NNW,337,4.2,-999.0,38,-99.99,,,0.00,Acu-Link.com,2013-07-10 03:31:00,
2013-07-09 21:46:00,68.5,43.9,30.04,NE,45,3.7,-999.0,41,-99.99,,,0.00,Acu-Link.com,2013-07-10 03:46:00,
2013-07-09 22:02:00,68.7,43.4,30.04,NNW,337,3.7,-999.0,40,-99.99,,,0.00,Acu-Link.com,2013-07-10 04:02:00,
2013-07-09 22:17:00,68.5,43.2,30.06,NE,45,1.7,-999.0,40,-99.99,,,0.00,Acu-Link.com,2013-07-10 04:17:00,
2013-07-09 22:32:00,65.8,44.4,30.04,North,0,1.7,-999.0,46,-99.99,,,0.00,Acu-Link.com,2013-07-10 04:32:00,
2013-07-09 22:47:00,66.0,45.2,30.05,NW,315,4.7,-999.0,47,-99.99,,,0.00,Acu-Link.com,2013-07-10 04:47:00,
2013-07-09 23:02:00,66.2,44.2,30.05,NNW,337,5.3,-999.0,45,-99.99,,,0.00,Acu-Link.com,2013-07-10 05:02:00,
2013-07-09 23:18:00,63.5,45.0,30.06,NW,315,0.0,-999.0,51,-99.99,,,0.00,Acu-Link.com,2013-07-10 05:18:00,
2013-07-09 23:33:00,62.4,44.5,30.07,WNW,292,3.2,-999.0,52,-99.99,,,0.00,Acu-Link.com,2013-07-10 05:33:00,
2013-07-09 23:48:00,60.8,45.9,30.06,WNW,292,0.0,-999.0,58,-99.99,,,0.00,Acu-Link.com,2013-07-10 05:48:00,